createdAt,value
2018-06-23T00:02:37.553Z,74.30
2018-06-23T00:05:06.166Z,74.50
2018-06-23T00:07:34.694Z,74.50
2018-06-23T00:10:03.222Z,74.70
2018-06-23T00:12:31.734Z,74.80
2018-06-23T00:15:00.226Z,74.60
2018-06-23T00:17:28.790Z,74.90
2018-06-23T00:19:57.288Z,74.90
2018-06-23T00:22:25.790Z,74.30
2018-06-23T00:24:54.322Z,74.60
2018-06-23T00:27:22.866Z,75.00
2018-06-23T00:29:51.374Z,75.00
2018-06-23T00:32:19.873Z,74.90
2018-06-23T00:34:48.382Z,75.10
2018-06-23T00:37:16.854Z,75.10
2018-06-23T00:39:45.330Z,75.00
2018-06-23T00:42:13.800Z,75.30
2018-06-23T00:44:42.384Z,75.30
2018-06-23T00:47:11.389Z,75.30
2018-06-23T00:49:39.898Z,75.40
2018-06-23T00:52:08.349Z,75.80
2018-06-23T00:54:36.918Z,75.10
2018-06-23T00:57:05.394Z,75.90
2018-06-23T00:59:41.782Z,75.40
2018-06-23T01:02:10.550Z,75.60
2018-06-23T01:04:39.110Z,75.60
2018-06-23T01:07:09.382Z,75.70
2018-06-23T01:09:38.174Z,76.10
2018-06-23T01:12:07.115Z,75.90
2018-06-23T01:14:36.088Z,76.10
2018-06-23T01:17:05.146Z,75.70
2018-06-23T01:19:33.626Z,75.70
2018-06-23T01:22:02.114Z,75.50
2018-06-23T01:24:30.614Z,75.80
2018-06-23T01:26:59.132Z,75.90
2018-06-23T01:29:27.619Z,75.50
2018-06-23T01:31:56.190Z,75.60
2018-06-23T01:34:24.656Z,75.60
2018-06-23T01:36:53.398Z,75.70
2018-06-23T01:39:21.913Z,75.90
2018-06-23T01:41:50.466Z,75.70
2018-06-23T01:44:18.962Z,75.60
2018-06-23T01:46:47.534Z,75.70
2018-06-23T01:49:15.973Z,75.70
2018-06-23T01:51:44.534Z,75.70
2018-06-23T01:54:13.042Z,75.30
2018-06-23T01:56:41.594Z,75.90
2018-06-23T01:59:10.076Z,75.30
2018-06-23T02:01:38.575Z,75.90
2018-06-23T02:04:07.069Z,75.60
2018-06-23T02:06:35.588Z,75.90
2018-06-23T02:09:06.178Z,75.60
2018-06-23T02:11:34.721Z,75.30
2018-06-23T02:14:08.457Z,75.30
2018-06-23T02:18:45.149Z,75.50
2018-06-23T02:21:19.783Z,75.60
2018-06-23T02:23:53.559Z,75.60
2018-06-23T02:26:27.380Z,75.40
2018-06-23T02:29:01.120Z,75.60
2018-06-23T02:31:35.030Z,75.50
2018-06-23T02:34:08.921Z,75.80
2018-06-23T02:36:37.386Z,75.30
2018-06-23T02:39:08.141Z,75.60
2018-06-23T02:44:04.802Z,75.40
2018-06-23T02:46:33.318Z,75.50
2018-06-23T02:49:01.892Z,75.60
2018-06-23T02:51:30.439Z,75.60
2018-06-23T02:53:59.008Z,75.60
2018-06-23T02:56:27.478Z,76.30
2018-06-23T02:58:55.982Z,76.60
2018-06-23T03:03:52.638Z,75.90
2018-06-23T03:06:21.124Z,76.30
2018-06-23T03:08:49.636Z,76.10
2018-06-23T03:11:18.146Z,76.10
2018-06-23T03:13:46.695Z,76.00
2018-06-23T03:16:15.195Z,75.70
2018-06-23T03:18:43.848Z,75.50
2018-06-23T03:21:12.348Z,75.20
2018-06-23T03:23:40.848Z,74.90
2018-06-23T03:26:09.374Z,74.30
2018-06-23T03:28:37.888Z,74.70
2018-06-23T03:31:06.514Z,74.30
2018-06-23T03:33:35.011Z,74.20
2018-06-23T03:36:03.510Z,74.00
2018-06-23T03:38:32.014Z,74.50
2018-06-23T03:41:00.534Z,74.20
2018-06-23T03:43:29.037Z,74.00
2018-06-23T03:45:57.620Z,73.80
2018-06-23T03:48:26.098Z,74.00
2018-06-23T03:50:54.627Z,73.90
2018-06-23T03:53:23.150Z,73.80
2018-06-23T03:55:51.663Z,74.10
2018-06-23T03:58:20.174Z,74.10
2018-06-23T04:00:53.952Z,73.90
2018-06-23T04:03:22.578Z,74.20
2018-06-23T04:05:51.106Z,74.00
2018-06-23T04:08:19.606Z,74.00
2018-06-23T04:10:48.148Z,73.50
2018-06-23T04:13:16.614Z,74.10
2018-06-23T04:15:45.132Z,73.40
2018-06-23T04:18:13.591Z,73.80
2018-06-23T04:20:44.782Z,73.70
2018-06-23T04:23:13.254Z,73.40
2018-06-23T04:25:41.780Z,73.10
2018-06-23T04:28:10.276Z,73.20
2018-06-23T04:30:38.868Z,73.40
2018-06-23T04:33:07.358Z,74.00
2018-06-23T04:35:35.888Z,73.30
2018-06-23T04:38:04.421Z,74.00
2018-06-23T04:40:33.837Z,73.50
2018-06-23T04:43:02.312Z,73.60
2018-06-23T04:45:30.880Z,73.00
2018-06-23T04:47:59.409Z,72.80
2018-06-23T04:50:28.139Z,72.80
2018-06-23T04:52:56.623Z,72.70
2018-06-23T04:55:25.096Z,72.00
2018-06-23T04:57:53.670Z,71.90
2018-06-23T05:00:25.331Z,72.00
2018-06-23T05:02:54.853Z,72.40
2018-06-23T05:05:23.701Z,72.70
2018-06-23T05:07:52.208Z,73.30
2018-06-23T05:10:20.715Z,71.50
2018-06-23T05:12:49.495Z,71.90
2018-06-23T05:15:18.003Z,72.20
2018-06-23T05:17:46.516Z,71.50
2018-06-23T05:20:15.088Z,71.30
2018-06-23T05:22:43.626Z,71.30
2018-06-23T05:25:12.098Z,72.40
2018-06-23T05:27:40.612Z,71.80
2018-06-23T05:30:09.109Z,71.70
2018-06-23T05:32:37.608Z,71.40
2018-06-23T05:35:06.119Z,72.00
2018-06-23T05:37:34.611Z,71.20
2018-06-23T05:40:03.683Z,70.70
2018-06-23T05:42:32.204Z,70.90
2018-06-23T05:45:00.676Z,70.80
2018-06-23T05:47:29.546Z,70.40
2018-06-23T05:49:57.993Z,69.70
2018-06-23T05:52:26.511Z,70.10
2018-06-23T05:54:55.001Z,69.60
2018-06-23T05:57:23.541Z,69.00
2018-06-23T05:59:52.028Z,68.40
2018-06-23T06:02:20.559Z,67.90
2018-06-23T06:04:49.095Z,67.70
2018-06-23T06:07:17.593Z,68.10
2018-06-23T06:09:46.110Z,67.30
2018-06-23T06:12:14.641Z,67.50
2018-06-23T06:14:43.143Z,67.60
2018-06-23T06:17:21.473Z,68.30
2018-06-23T06:19:51.402Z,66.00
2018-06-23T06:22:22.507Z,67.10
2018-06-23T06:24:51.056Z,66.30
2018-06-23T06:27:19.519Z,65.50
2018-06-23T06:29:48.304Z,66.40
2018-06-23T06:32:16.872Z,64.90
2018-06-23T06:34:45.406Z,65.40
2018-06-23T06:37:13.892Z,65.10
2018-06-23T06:42:10.824Z,65.40
2018-06-23T06:44:39.401Z,64.90
2018-06-23T06:47:07.949Z,63.90
2018-06-23T06:49:36.474Z,64.60
2018-06-23T06:52:04.990Z,63.50
2018-06-23T06:54:33.498Z,63.70
2018-06-23T06:57:02.058Z,62.60
2018-06-23T06:59:30.552Z,63.40
2018-06-23T07:01:59.047Z,63.50
2018-06-23T07:04:27.507Z,63.10
2018-06-23T07:06:56.072Z,63.60
2018-06-23T07:09:24.651Z,61.90
2018-06-23T07:11:53.261Z,61.90
2018-06-23T07:14:21.849Z,61.90
2018-06-23T07:16:50.411Z,62.80
2018-06-23T07:19:18.881Z,62.40
2018-06-23T07:21:47.410Z,61.40
2018-06-23T07:24:16.051Z,61.10
2018-06-23T07:26:44.534Z,61.20
2018-06-23T07:29:13.015Z,63.50
2018-06-23T07:31:41.552Z,61.10
2018-06-23T07:34:10.071Z,59.60
2018-06-23T07:36:39.133Z,60.00
2018-06-23T07:39:09.217Z,61.10
2018-06-23T07:41:38.304Z,59.60
2018-06-23T07:44:07.404Z,60.00
2018-06-23T07:46:36.022Z,59.70
2018-06-23T07:49:04.554Z,59.00
2018-06-23T07:51:33.224Z,59.20
2018-06-23T07:54:01.761Z,58.10
2018-06-23T07:56:30.227Z,59.40
2018-06-23T07:58:58.732Z,57.60
2018-06-23T08:01:27.274Z,58.50
2018-06-23T08:03:55.832Z,57.20
2018-06-23T08:06:24.308Z,54.30
2018-06-23T08:08:52.821Z,53.80
2018-06-23T08:11:21.324Z,54.20
2018-06-23T08:13:49.855Z,55.20
2018-06-23T08:16:18.376Z,54.70
2018-06-23T08:18:46.918Z,54.80
2018-06-23T08:21:15.379Z,53.80
2018-06-23T08:23:43.899Z,53.60
2018-06-23T08:26:12.448Z,54.20
2018-06-23T08:28:40.993Z,54.40
2018-06-23T08:31:09.519Z,54.70
2018-06-23T08:33:38.051Z,53.50
2018-06-23T08:36:06.579Z,53.10
2018-06-23T08:38:35.108Z,53.70
2018-06-23T08:41:03.686Z,55.10
2018-06-23T08:43:32.297Z,55.70
2018-06-23T08:46:00.813Z,56.10
2018-06-23T08:48:29.291Z,55.50
2018-06-23T08:50:57.832Z,56.30
2018-06-23T08:53:26.305Z,55.80
2018-06-23T08:55:54.827Z,57.20
2018-06-23T08:58:23.297Z,57.00
2018-06-23T09:00:51.792Z,56.20
2018-06-23T09:03:20.289Z,57.20
2018-06-23T09:05:48.840Z,56.80
2018-06-23T09:08:17.320Z,56.60
2018-06-23T09:10:45.869Z,56.80
2018-06-23T09:13:14.351Z,57.40
2018-06-23T09:15:42.849Z,57.00
2018-06-23T09:18:11.355Z,56.80
2018-06-23T09:20:39.902Z,57.40
2018-06-23T09:23:08.367Z,57.20
2018-06-23T09:25:37.043Z,57.60
2018-06-23T09:28:05.726Z,58.40
2018-06-23T09:30:34.331Z,56.80
2018-06-23T09:33:02.860Z,56.70
2018-06-23T09:35:31.412Z,55.60
2018-06-23T09:37:59.912Z,55.80
2018-06-23T09:40:28.363Z,56.80
2018-06-23T09:42:56.893Z,56.20
2018-06-23T09:45:25.383Z,56.50
2018-06-23T09:47:53.981Z,57.70
2018-06-23T09:50:22.480Z,56.40
2018-06-23T09:52:50.991Z,57.20
2018-06-23T09:55:19.503Z,57.40
2018-06-23T09:57:48.064Z,57.90
2018-06-23T10:00:17.675Z,56.50
2018-06-23T10:02:47.651Z,54.90
2018-06-23T10:05:16.139Z,53.60
2018-06-23T10:07:44.661Z,53.80
2018-06-23T10:10:13.219Z,54.50
2018-06-23T10:12:41.721Z,55.30
2018-06-23T10:15:10.203Z,55.10
2018-06-23T10:17:38.703Z,55.50
2018-06-23T10:20:07.224Z,56.30
2018-06-23T10:22:35.735Z,58.10
2018-06-23T10:25:04.287Z,58.30
2018-06-23T10:27:32.807Z,58.70
2018-06-23T10:30:01.331Z,59.00
2018-06-23T10:32:29.889Z,59.20
2018-06-23T10:34:58.375Z,58.40
2018-06-23T10:37:27.272Z,58.30
2018-06-23T10:39:55.851Z,55.70
2018-06-23T10:42:24.287Z,55.40
2018-06-23T10:44:52.863Z,55.90
2018-06-23T10:47:21.447Z,53.80
2018-06-23T10:49:49.988Z,52.50
2018-06-23T10:52:18.488Z,54.10
2018-06-23T10:54:47.091Z,55.40
2018-06-23T10:57:15.636Z,54.30
2018-06-23T10:59:44.201Z,53.50
2018-06-23T11:02:12.702Z,52.30
2018-06-23T11:04:41.283Z,53.10
2018-06-23T11:07:09.887Z,53.80
2018-06-23T11:09:38.679Z,53.70
2018-06-23T11:12:07.201Z,52.70
2018-06-23T11:14:35.731Z,51.70
2018-06-23T11:17:04.259Z,51.90
2018-06-23T11:19:32.841Z,52.50
2018-06-23T11:22:02.068Z,51.80
2018-06-23T11:24:30.686Z,50.70
2018-06-23T11:26:59.179Z,50.50
2018-06-23T11:29:27.923Z,51.40
2018-06-23T11:31:56.439Z,50.30
2018-06-23T11:34:24.945Z,49.90
2018-06-23T11:36:53.487Z,50.70
2018-06-23T11:39:21.979Z,48.70
2018-06-23T11:41:50.547Z,49.80
2018-06-23T11:44:19.027Z,49.30
2018-06-23T11:46:47.719Z,50.10
2018-06-23T11:49:16.191Z,51.00
2018-06-23T11:51:44.693Z,50.00
2018-06-23T11:54:13.155Z,50.40
2018-06-23T11:56:41.659Z,49.80
2018-06-23T11:59:10.159Z,50.40
2018-06-23T12:01:38.719Z,50.50
2018-06-23T12:04:07.227Z,50.70
2018-06-23T12:06:35.843Z,50.10
2018-06-23T12:09:06.245Z,49.40
2018-06-23T12:11:34.763Z,48.90
2018-06-23T12:14:03.354Z,49.30
2018-06-23T12:16:32.137Z,48.90
2018-06-23T12:19:00.599Z,48.30
2018-06-23T12:21:29.105Z,46.20
2018-06-23T12:23:57.671Z,46.20
2018-06-23T12:26:26.179Z,46.50
2018-06-23T12:28:54.711Z,44.70
2018-06-23T12:31:23.213Z,45.20
2018-06-23T12:33:52.110Z,45.40
2018-06-23T12:36:20.611Z,45.80
2018-06-23T12:38:49.198Z,45.40
2018-06-23T12:41:17.667Z,45.70
2018-06-23T12:43:46.194Z,46.50
2018-06-23T12:46:14.774Z,45.70
2018-06-23T12:48:43.310Z,45.90
2018-06-23T12:51:11.830Z,46.20
2018-06-23T12:53:40.346Z,46.30
2018-06-23T12:56:08.850Z,46.60
2018-06-23T12:58:37.411Z,46.50
2018-06-23T13:01:05.970Z,46.30
2018-06-23T13:03:34.519Z,46.70
2018-06-23T13:06:03.046Z,46.30
2018-06-23T13:08:31.571Z,46.90
2018-06-23T13:11:00.061Z,46.60
2018-06-23T13:13:28.582Z,45.40
2018-06-23T13:15:57.078Z,45.50
2018-06-23T13:18:25.575Z,46.60
2018-06-23T13:20:54.068Z,45.70
2018-06-23T13:23:22.596Z,46.60
2018-06-23T13:25:51.075Z,47.50
2018-06-23T13:28:19.586Z,46.00
2018-06-23T13:30:48.059Z,46.90
2018-06-23T13:33:16.620Z,45.70
2018-06-23T13:35:45.147Z,43.80
2018-06-23T13:38:13.686Z,43.70
2018-06-23T13:40:42.194Z,44.80
2018-06-23T13:43:10.659Z,44.00
2018-06-23T13:45:39.240Z,41.80
2018-06-23T13:48:07.772Z,42.20
2018-06-23T13:50:36.270Z,42.60
2018-06-23T13:53:04.766Z,42.50
2018-06-23T13:55:33.324Z,41.40
2018-06-23T13:58:01.880Z,43.10
2018-06-23T14:00:30.427Z,42.30
2018-06-23T14:02:59.049Z,42.10
2018-06-23T14:05:27.626Z,41.80
2018-06-23T14:07:56.216Z,41.80
2018-06-23T14:10:25.096Z,41.40
2018-06-23T14:12:53.718Z,42.40
2018-06-23T14:15:22.342Z,41.70
2018-06-23T14:17:50.839Z,42.40
2018-06-23T14:20:19.367Z,42.60
2018-06-23T14:22:47.887Z,42.70
2018-06-23T14:25:16.425Z,42.10
2018-06-23T14:27:44.963Z,42.10
2018-06-23T14:30:13.486Z,42.40
2018-06-23T14:32:42.014Z,42.50
2018-06-23T14:35:10.558Z,41.00
2018-06-23T14:37:39.168Z,39.00
2018-06-23T14:40:07.709Z,40.80
2018-06-23T14:42:37.298Z,41.10
2018-06-23T14:45:05.864Z,40.80
2018-06-23T14:47:34.583Z,40.90
2018-06-23T14:50:03.183Z,41.80
2018-06-23T14:52:31.759Z,41.20
2018-06-23T14:55:00.261Z,41.00
2018-06-23T14:57:28.811Z,40.90
2018-06-23T14:59:57.309Z,41.30
2018-06-23T15:02:25.908Z,42.20
2018-06-23T15:04:54.640Z,41.60
2018-06-23T15:07:23.067Z,42.10
2018-06-23T15:10:03.027Z,42.50
2018-06-23T15:12:42.603Z,40.90
2018-06-23T15:15:11.139Z,42.10
2018-06-23T15:17:39.692Z,41.50
2018-06-23T15:20:08.255Z,43.10
2018-06-23T15:22:36.784Z,42.10
2018-06-23T15:27:34.700Z,40.70
2018-06-23T15:30:03.736Z,41.40
2018-06-23T15:32:32.293Z,40.80
2018-06-23T15:35:00.888Z,39.60
2018-06-23T15:37:29.478Z,41.20
2018-06-23T15:39:58.014Z,39.20
2018-06-23T15:42:26.540Z,40.50
2018-06-23T15:44:55.095Z,40.50
2018-06-23T15:47:23.593Z,40.80
2018-06-23T15:49:52.110Z,40.00
2018-06-23T15:52:20.641Z,40.80
2018-06-23T15:54:49.163Z,39.50
2018-06-23T15:57:17.915Z,39.90
2018-06-23T15:59:46.431Z,39.50
2018-06-23T16:02:14.936Z,39.00
2018-06-23T16:04:43.490Z,39.80
2018-06-23T16:07:11.988Z,39.60
2018-06-23T16:09:40.524Z,39.90
2018-06-23T16:12:09.011Z,38.10
2018-06-23T16:14:37.530Z,39.20
2018-06-23T16:17:06.079Z,39.90
2018-06-23T16:19:34.612Z,40.10
2018-06-23T16:22:03.111Z,40.00
2018-06-23T16:24:31.668Z,39.50
2018-06-23T16:27:00.152Z,37.00
2018-06-23T16:29:28.668Z,37.20
2018-06-23T16:31:57.344Z,37.30
2018-06-23T16:34:25.881Z,37.10
2018-06-23T16:36:54.520Z,37.20
2018-06-23T16:39:23.096Z,38.10
2018-06-23T16:41:51.648Z,38.20
2018-06-23T16:44:20.122Z,37.10
2018-06-23T16:46:48.667Z,36.50
2018-06-23T16:49:17.155Z,36.00
2018-06-23T16:51:45.681Z,36.10
2018-06-23T16:54:14.217Z,35.50
2018-06-23T16:56:42.769Z,35.70
2018-06-23T16:59:11.265Z,35.90
2018-06-23T17:01:39.766Z,36.60
2018-06-23T17:04:08.264Z,37.40
2018-06-23T17:06:36.795Z,38.20
2018-06-23T17:09:07.967Z,38.10
2018-06-23T17:11:36.519Z,37.50
2018-06-23T17:14:04.997Z,39.10
2018-06-23T17:16:33.524Z,38.50
2018-06-23T17:19:01.996Z,39.70
2018-06-23T17:21:30.800Z,39.40
2018-06-23T17:23:59.296Z,39.50
2018-06-23T17:26:27.797Z,40.00
2018-06-23T17:28:56.272Z,39.40
2018-06-23T17:31:24.796Z,40.10
2018-06-23T17:33:53.253Z,39.70
2018-06-23T17:36:21.768Z,39.90
2018-06-23T17:38:50.287Z,40.00
2018-06-23T17:41:18.780Z,40.20
2018-06-23T17:43:47.275Z,40.80
2018-06-23T17:46:15.792Z,41.90
2018-06-23T17:48:44.369Z,40.80
2018-06-23T17:51:12.860Z,41.10
2018-06-23T17:53:41.471Z,41.10
2018-06-23T17:56:10.067Z,41.40
2018-06-23T17:58:38.687Z,41.20
2018-06-23T18:01:07.196Z,41.40
2018-06-23T18:03:35.752Z,41.60
2018-06-23T18:06:04.380Z,41.50
2018-06-23T18:08:32.923Z,42.10
2018-06-23T18:11:01.426Z,42.60
2018-06-23T18:13:29.948Z,42.60
2018-06-23T18:15:58.418Z,42.90
2018-06-23T18:18:27.056Z,42.80
2018-06-23T18:20:55.555Z,43.10
2018-06-23T18:23:24.062Z,43.60
2018-06-23T18:25:52.582Z,43.20
2018-06-23T18:28:21.257Z,43.80
2018-06-23T18:30:50.611Z,43.80
2018-06-23T18:33:19.109Z,43.80
2018-06-23T18:35:47.613Z,44.00
2018-06-23T18:38:16.164Z,44.20
2018-06-23T18:40:47.002Z,43.90
2018-06-23T18:43:15.556Z,44.50
2018-06-23T18:45:44.160Z,44.40
2018-06-23T18:48:12.713Z,44.70
2018-06-23T18:50:41.768Z,45.20
2018-06-23T18:53:10.307Z,45.30
2018-06-23T18:55:39.146Z,45.70
2018-06-23T18:58:07.718Z,46.40
2018-06-23T19:00:36.210Z,46.30
2018-06-23T19:03:04.733Z,46.10
2018-06-23T19:05:33.227Z,46.30
2018-06-23T19:10:29.931Z,47.00
2018-06-23T19:12:58.383Z,47.00
2018-06-23T19:15:26.895Z,47.00
2018-06-23T19:17:55.358Z,47.00
2018-06-23T19:20:23.865Z,47.10
2018-06-23T19:22:52.334Z,47.50
2018-06-23T19:25:20.878Z,47.70
2018-06-23T19:27:49.366Z,47.60
2018-06-23T19:30:17.881Z,47.40
2018-06-23T19:32:46.368Z,47.80
2018-06-23T19:35:14.900Z,47.80
2018-06-23T19:37:43.375Z,47.80
2018-06-23T19:40:11.862Z,48.00
2018-06-23T19:42:40.438Z,48.20
2018-06-23T19:45:08.987Z,48.20
2018-06-23T19:47:37.535Z,48.40
2018-06-23T19:50:06.272Z,48.60
2018-06-23T19:52:35.148Z,48.50
2018-06-23T19:55:03.674Z,48.80
2018-06-23T19:57:32.191Z,48.80
2018-06-23T20:00:00.685Z,48.80
2018-06-23T20:02:29.195Z,48.90
2018-06-23T20:04:57.697Z,49.00
2018-06-23T20:07:26.242Z,49.40
2018-06-23T20:09:54.738Z,49.30
2018-06-23T20:12:23.256Z,49.40
2018-06-23T20:14:51.748Z,49.40
2018-06-23T20:17:20.270Z,49.80
2018-06-23T20:19:48.828Z,50.00
2018-06-23T20:22:17.357Z,50.10
2018-06-23T20:24:45.827Z,50.90
2018-06-23T20:27:14.331Z,50.60
2018-06-23T20:32:11.027Z,52.30
2018-06-23T20:34:39.519Z,52.10
2018-06-23T20:37:08.023Z,51.30
2018-06-23T20:39:36.479Z,52.60
2018-06-23T20:42:05.028Z,52.30
2018-06-23T20:44:33.511Z,52.30
2018-06-23T20:47:02.067Z,52.50
2018-06-23T20:49:30.619Z,52.70
2018-06-23T20:51:59.183Z,52.70
2018-06-23T20:54:27.707Z,53.20
2018-06-23T20:56:56.223Z,52.90
2018-06-23T20:59:24.773Z,52.70
2018-06-23T21:01:53.257Z,54.10
2018-06-23T21:04:21.775Z,53.90
2018-06-23T21:06:50.260Z,54.30
2018-06-23T21:09:18.763Z,54.60
2018-06-23T21:11:47.275Z,55.00
2018-06-23T21:14:15.794Z,55.70
2018-06-23T21:16:44.303Z,54.50
2018-06-23T21:19:12.827Z,54.80
2018-06-23T21:21:41.286Z,54.70
2018-06-23T21:24:09.822Z,54.50
2018-06-23T21:26:38.333Z,54.30
2018-06-23T21:29:06.870Z,54.30
2018-06-23T21:31:35.341Z,54.40
2018-06-23T21:34:03.863Z,54.60
2018-06-23T21:36:32.395Z,54.80
2018-06-23T21:39:00.922Z,54.90
2018-06-23T21:41:29.467Z,54.50
2018-06-23T21:43:58.040Z,54.50
2018-06-23T21:46:26.539Z,54.80
2018-06-23T21:48:55.147Z,55.70
2018-06-23T21:51:23.627Z,55.40
2018-06-23T21:53:52.199Z,55.80
2018-06-23T21:56:20.694Z,55.90
2018-06-23T21:58:49.223Z,56.00
2018-06-23T22:01:17.713Z,55.80
2018-06-23T22:03:46.241Z,56.10
2018-06-23T22:06:14.759Z,56.20
2018-06-23T22:08:43.280Z,56.20
2018-06-23T22:11:11.779Z,56.50
2018-06-23T22:13:40.327Z,56.70
2018-06-23T22:16:08.832Z,56.70
2018-06-23T22:18:37.344Z,57.10
2018-06-23T22:21:05.893Z,56.90
2018-06-23T22:23:34.400Z,57.60
2018-06-23T22:26:02.893Z,58.10
2018-06-23T22:28:31.427Z,57.60
2018-06-23T22:30:59.939Z,57.90
2018-06-23T22:33:28.431Z,58.10
2018-06-23T22:35:57.051Z,58.20
2018-06-23T22:38:25.544Z,58.30
2018-06-23T22:40:54.079Z,58.10
2018-06-23T22:43:22.578Z,58.00
2018-06-23T22:45:51.143Z,58.60
2018-06-23T22:50:47.947Z,58.60
2018-06-23T22:53:16.454Z,58.70
2018-06-23T22:55:44.991Z,58.90
2018-06-23T22:58:13.465Z,58.90
2018-06-23T23:00:41.968Z,59.30
2018-06-23T23:03:10.488Z,59.40
2018-06-23T23:05:39.003Z,59.60
2018-06-23T23:08:07.550Z,59.50
2018-06-23T23:10:36.146Z,59.90
2018-06-23T23:13:04.654Z,60.60
2018-06-23T23:15:33.170Z,60.60
2018-06-23T23:18:01.697Z,60.70
2018-06-23T23:20:30.214Z,61.00
2018-06-23T23:22:58.722Z,61.30
2018-06-23T23:25:27.241Z,61.60
2018-06-23T23:27:55.745Z,61.90
2018-06-23T23:30:24.275Z,62.30
2018-06-23T23:32:52.821Z,62.70
2018-06-23T23:35:21.307Z,62.80
2018-06-23T23:37:49.835Z,62.80
2018-06-23T23:40:18.361Z,63.00
2018-06-23T23:42:46.882Z,63.10
2018-06-23T23:45:15.411Z,63.40
2018-06-23T23:47:43.982Z,63.20
2018-06-23T23:50:12.559Z,63.60
2018-06-23T23:52:41.059Z,63.90
2018-06-23T23:55:09.526Z,63.20
2018-06-23T23:57:38.112Z,62.50
